createdAt,value
2023-04-23T00:00:01.473Z,11.11
2023-04-23T00:02:33.235Z,11.11
2023-04-23T00:05:06.299Z,11.09
2023-04-23T00:07:34.677Z,11.13
2023-04-23T00:10:03.334Z,11.12
2023-04-23T00:12:31.475Z,11.13
2023-04-23T00:15:00.143Z,11.20
2023-04-23T00:17:27.565Z,11.23
2023-04-23T00:19:54.913Z,11.21
2023-04-23T00:22:22.202Z,11.21
2023-04-23T00:24:49.478Z,11.18
2023-04-23T00:27:16.785Z,11.16
2023-04-23T00:29:44.192Z,11.17
2023-04-23T00:32:11.534Z,11.20
2023-04-23T00:34:39.020Z,11.21
2023-04-23T00:37:06.467Z,11.24
2023-04-23T00:39:33.858Z,11.28
2023-04-23T00:42:01.171Z,11.30
2023-04-23T00:44:28.397Z,11.31
2023-04-23T00:46:56.125Z,11.28
2023-04-23T00:49:25.186Z,11.32
2023-04-23T00:51:52.471Z,11.36
2023-04-23T00:54:19.760Z,11.39
2023-04-23T00:56:47.956Z,11.42
2023-04-23T00:59:16.104Z,11.45
2023-04-23T01:01:43.531Z,11.46
2023-04-23T01:04:16.397Z,11.48
2023-04-23T01:06:45.743Z,11.50
2023-04-23T01:09:13.194Z,11.53
2023-04-23T01:11:44.137Z,11.52
2023-04-23T01:14:12.178Z,11.52
2023-04-23T01:16:39.698Z,11.49
2023-04-23T01:19:09.333Z,11.48
2023-04-23T01:21:39.756Z,11.49
2023-04-23T01:24:08.633Z,11.51
2023-04-23T01:26:36.294Z,11.51
2023-04-23T01:29:04.379Z,11.53
2023-04-23T01:31:33.041Z,11.51
2023-04-23T01:34:01.651Z,11.44
2023-04-23T01:36:29.985Z,11.39
2023-04-23T01:38:57.431Z,11.34
2023-04-23T01:41:25.167Z,11.32
2023-04-23T01:43:52.620Z,11.25
2023-04-23T01:46:21.488Z,11.23
2023-04-23T01:48:49.234Z,11.18
2023-04-23T01:51:16.684Z,11.16
2023-04-23T01:53:43.923Z,11.12
2023-04-23T01:56:11.907Z,11.05
2023-04-23T01:58:39.402Z,11.00
2023-04-23T02:01:06.612Z,10.95
2023-04-23T02:03:34.401Z,10.87
2023-04-23T02:06:01.798Z,10.80
2023-04-23T02:08:29.181Z,10.76
2023-04-23T02:10:56.491Z,10.72
2023-04-23T02:13:23.860Z,10.68
2023-04-23T02:15:51.159Z,10.66
2023-04-23T02:18:18.331Z,10.62
2023-04-23T02:20:45.631Z,10.60
2023-04-23T02:23:12.862Z,10.59
2023-04-23T02:25:40.384Z,10.59
2023-04-23T02:28:07.979Z,10.57
2023-04-23T02:30:36.300Z,10.58
2023-04-23T02:33:03.909Z,10.55
2023-04-23T02:35:31.530Z,10.54
2023-04-23T02:37:58.806Z,10.52
2023-04-23T02:40:26.105Z,10.48
2023-04-23T02:42:53.381Z,10.49
2023-04-23T02:45:20.613Z,10.53
2023-04-23T02:47:47.834Z,10.53
2023-04-23T02:50:15.208Z,10.54
2023-04-23T02:52:42.460Z,10.54
2023-04-23T02:55:10.190Z,10.57
2023-04-23T02:57:37.854Z,10.57
2023-04-23T03:00:06.114Z,10.58
2023-04-23T03:02:33.517Z,10.54
2023-04-23T03:05:00.950Z,10.50
2023-04-23T03:07:28.350Z,10.51
2023-04-23T03:09:55.571Z,10.46
2023-04-23T03:12:23.057Z,10.47
2023-04-23T03:14:50.322Z,10.43
2023-04-23T03:17:17.886Z,10.37
2023-04-23T03:19:45.232Z,10.37
2023-04-23T03:22:12.473Z,10.37
2023-04-23T03:24:39.969Z,10.32
2023-04-23T03:27:07.583Z,10.34
2023-04-23T03:29:35.035Z,10.33
2023-04-23T03:32:02.610Z,10.34
2023-04-23T03:34:29.908Z,10.36
2023-04-23T03:36:57.084Z,10.36
2023-04-23T03:39:24.353Z,10.36
2023-04-23T03:41:51.628Z,10.34
2023-04-23T03:44:18.867Z,10.31
2023-04-23T03:46:46.081Z,10.29
2023-04-23T03:49:13.365Z,10.29
2023-04-23T03:51:40.585Z,10.30
2023-04-23T03:54:07.787Z,10.29
2023-04-23T03:56:35.059Z,10.26
2023-04-23T03:59:02.265Z,10.24
2023-04-23T04:01:29.538Z,10.26
2023-04-23T04:03:57.038Z,10.29
2023-04-23T04:06:24.409Z,10.32
2023-04-23T04:08:51.606Z,10.36
2023-04-23T04:11:18.834Z,10.41
2023-04-23T04:13:46.047Z,10.45
2023-04-23T04:16:13.404Z,10.46
2023-04-23T04:18:40.718Z,10.47
2023-04-23T04:21:07.965Z,10.49
2023-04-23T04:23:35.763Z,10.47
2023-04-23T04:26:03.019Z,10.50
2023-04-23T04:28:30.277Z,10.49
2023-04-23T04:30:57.584Z,10.52
2023-04-23T04:33:25.140Z,10.52
2023-04-23T04:35:52.397Z,10.52
2023-04-23T04:38:19.636Z,10.51
2023-04-23T04:40:46.909Z,10.53
2023-04-23T04:43:14.195Z,10.53
2023-04-23T04:45:41.391Z,10.56
2023-04-23T04:48:09.137Z,10.58
2023-04-23T04:50:36.448Z,10.59
2023-04-23T04:53:03.767Z,10.60
2023-04-23T04:55:31.189Z,10.61
2023-04-23T04:57:58.789Z,10.60
2023-04-23T05:00:29.479Z,10.58
2023-04-23T05:02:58.808Z,10.64
2023-04-23T05:05:28.008Z,10.65
2023-04-23T05:07:55.687Z,10.66
2023-04-23T05:10:22.916Z,10.66
2023-04-23T05:12:50.188Z,10.69
2023-04-23T05:15:17.637Z,10.76
2023-04-23T05:17:44.940Z,10.80
2023-04-23T05:20:12.407Z,10.86
2023-04-23T05:22:41.949Z,10.89
2023-04-23T05:25:11.595Z,10.85
2023-04-23T05:27:39.651Z,10.82
2023-04-23T05:30:10.527Z,10.87
2023-04-23T05:32:38.684Z,10.93
2023-04-23T05:35:06.868Z,10.95
2023-04-23T05:37:34.529Z,10.92
2023-04-23T05:40:02.104Z,10.89
2023-04-23T05:42:29.491Z,10.83
2023-04-23T05:44:56.733Z,10.88
2023-04-23T05:47:24.058Z,10.91
2023-04-23T05:49:51.648Z,10.99
2023-04-23T05:52:19.381Z,11.03
2023-04-23T05:54:46.625Z,10.98
2023-04-23T05:57:13.966Z,11.06
2023-04-23T05:59:41.210Z,11.11
2023-04-23T06:02:10.980Z,11.12
2023-04-23T06:04:38.722Z,11.15
2023-04-23T06:07:07.027Z,11.17
2023-04-23T06:09:34.337Z,11.24
2023-04-23T06:12:02.289Z,11.29
2023-04-23T06:14:29.547Z,11.31
2023-04-23T06:16:56.792Z,11.32
2023-04-23T06:19:24.064Z,11.36
2023-04-23T06:21:51.792Z,11.45
2023-04-23T06:24:19.018Z,11.50
2023-04-23T06:26:46.389Z,11.56
2023-04-23T06:29:13.665Z,11.64
2023-04-23T06:31:41.104Z,11.73
2023-04-23T06:34:08.687Z,11.77
2023-04-23T06:36:35.920Z,11.79
2023-04-23T06:39:03.550Z,11.86
2023-04-23T06:41:30.926Z,11.94
2023-04-23T06:43:58.190Z,12.00
2023-04-23T06:46:25.476Z,12.07
2023-04-23T06:48:52.684Z,12.11
2023-04-23T06:51:20.089Z,12.16
2023-04-23T06:53:47.976Z,12.27
2023-04-23T06:56:15.295Z,12.34
2023-04-23T06:58:42.590Z,12.46
2023-04-23T07:01:09.950Z,12.51
2023-04-23T07:03:37.746Z,12.66
2023-04-23T07:06:05.638Z,12.66
2023-04-23T07:08:32.905Z,12.72
2023-04-23T07:11:00.172Z,12.77
2023-04-23T07:13:27.620Z,12.82
2023-04-23T07:15:54.824Z,12.85
2023-04-23T07:18:22.029Z,12.93
2023-04-23T07:20:49.319Z,12.94
2023-04-23T07:23:17.105Z,13.00
2023-04-23T07:25:44.717Z,12.99
2023-04-23T07:28:12.005Z,13.08
2023-04-23T07:30:39.351Z,13.13
2023-04-23T07:33:06.783Z,13.12
2023-04-23T07:35:34.363Z,13.15
2023-04-23T07:38:01.925Z,13.23
2023-04-23T07:40:29.153Z,13.28
2023-04-23T07:42:57.147Z,13.28
2023-04-23T07:45:24.384Z,13.18
2023-04-23T07:47:51.692Z,13.22
2023-04-23T07:50:19.188Z,13.31
2023-04-23T07:52:46.977Z,13.35
2023-04-23T07:55:14.227Z,13.34
2023-04-23T07:57:41.735Z,13.33
2023-04-23T08:00:09.581Z,13.39
2023-04-23T08:02:37.231Z,13.44
2023-04-23T08:05:05.370Z,13.43
2023-04-23T08:07:32.986Z,13.45
2023-04-23T08:10:00.260Z,13.42
2023-04-23T08:12:27.806Z,13.39
2023-04-23T08:14:55.053Z,13.43
2023-04-23T08:17:22.436Z,13.59
2023-04-23T08:19:49.761Z,13.68
2023-04-23T08:22:17.153Z,13.71
2023-04-23T08:24:45.217Z,13.79
2023-04-23T08:27:12.997Z,13.78
2023-04-23T08:29:40.631Z,13.87
2023-04-23T08:32:08.297Z,13.98
2023-04-23T08:34:35.933Z,14.03
2023-04-23T08:37:03.517Z,14.03
2023-04-23T08:39:30.947Z,14.14
2023-04-23T08:42:08.115Z,14.17
2023-04-23T08:44:38.247Z,14.25
2023-04-23T08:47:07.725Z,14.18
2023-04-23T08:49:35.359Z,14.32
2023-04-23T08:52:21.251Z,14.31
2023-04-23T08:54:54.504Z,14.23
2023-04-23T08:57:22.920Z,14.35
2023-04-23T08:59:51.011Z,14.34
2023-04-23T09:02:18.913Z,14.47
2023-04-23T09:04:47.950Z,14.41
2023-04-23T09:07:16.769Z,14.49
2023-04-23T09:09:44.749Z,14.52
2023-04-23T09:12:12.130Z,14.48
2023-04-23T09:14:39.491Z,14.31
2023-04-23T09:17:07.023Z,14.29
2023-04-23T09:19:34.990Z,14.26
2023-04-23T09:22:02.245Z,14.26
2023-04-23T09:24:29.599Z,14.36
2023-04-23T09:26:58.640Z,14.32
2023-04-23T09:29:26.325Z,14.23
2023-04-23T09:32:03.966Z,14.36
2023-04-23T09:34:36.931Z,14.38
2023-04-23T09:37:06.765Z,14.40
2023-04-23T09:39:34.998Z,14.44
2023-04-23T09:42:06.248Z,14.44
2023-04-23T09:44:34.682Z,14.58
2023-04-23T09:47:09.432Z,14.65
2023-04-23T09:49:50.862Z,14.65
2023-04-23T09:52:19.320Z,14.79
2023-04-23T09:54:46.941Z,14.83
2023-04-23T09:57:14.216Z,14.92
2023-04-23T09:59:48.933Z,14.91
2023-04-23T10:02:20.643Z,14.93
2023-04-23T10:04:51.830Z,14.95
2023-04-23T10:07:20.773Z,15.01
2023-04-23T10:09:48.466Z,15.16
2023-04-23T10:12:39.406Z,15.26
2023-04-23T10:15:06.084Z,15.22
2023-04-23T10:17:35.880Z,15.23
2023-04-23T10:20:04.905Z,15.18
2023-04-23T10:22:35.789Z,15.23
2023-04-23T10:25:12.756Z,15.18
2023-04-23T10:27:52.820Z,15.27
2023-04-23T10:30:22.475Z,15.34
2023-04-23T10:32:51.383Z,15.33
2023-04-23T10:35:18.852Z,15.35
2023-04-23T10:37:48.938Z,15.43
2023-04-23T10:40:29.920Z,15.42
2023-04-23T10:42:58.555Z,15.24
2023-04-23T10:45:26.018Z,15.22
2023-04-23T10:47:56.620Z,15.06
2023-04-23T10:50:30.633Z,14.92
2023-04-23T10:52:58.813Z,14.80
2023-04-23T10:55:29.825Z,14.70
2023-04-23T10:58:06.539Z,14.55
2023-04-23T11:00:42.745Z,14.37
2023-04-23T11:03:39.658Z,14.21
2023-04-23T11:06:13.826Z,14.16
2023-04-23T11:08:56.177Z,14.23
2023-04-23T11:11:43.391Z,14.15
2023-04-23T11:14:14.032Z,14.20
2023-04-23T11:16:41.470Z,14.25
2023-04-23T11:19:11.941Z,14.30
2023-04-23T11:22:02.407Z,14.41
2023-04-23T11:24:41.664Z,14.50
2023-04-23T11:27:13.943Z,14.67
2023-04-23T11:29:47.167Z,14.87
2023-04-23T11:32:18.098Z,15.04
2023-04-23T11:34:47.946Z,15.27
2023-04-23T11:37:17.516Z,15.44
2023-04-23T11:39:46.407Z,15.82
2023-04-23T11:42:17.689Z,16.26
2023-04-23T11:44:48.556Z,16.50
2023-04-23T11:47:16.606Z,16.62
2023-04-23T11:49:45.842Z,16.77
2023-04-23T11:52:14.694Z,16.80
2023-04-23T11:54:42.326Z,16.79
2023-04-23T11:57:10.640Z,16.67
2023-04-23T11:59:38.092Z,16.55
2023-04-23T12:02:05.502Z,16.45
2023-04-23T12:04:33.875Z,16.35
2023-04-23T12:07:01.972Z,16.28
2023-04-23T12:09:31.459Z,16.15
2023-04-23T12:11:58.868Z,16.01
2023-04-23T12:14:29.439Z,15.96
2023-04-23T12:16:58.618Z,15.84
2023-04-23T12:19:31.228Z,15.81
2023-04-23T12:22:04.222Z,15.88
2023-04-23T12:24:47.883Z,15.98
2023-04-23T12:27:16.389Z,16.01
2023-04-23T12:29:44.094Z,16.02
2023-04-23T12:32:12.302Z,15.87
2023-04-23T12:34:52.886Z,15.89
2023-04-23T12:37:29.529Z,15.87
2023-04-23T12:39:57.605Z,15.79
2023-04-23T12:42:26.124Z,15.58
2023-04-23T12:44:53.517Z,15.58
2023-04-23T12:47:20.978Z,15.57
2023-04-23T12:49:50.502Z,15.54
2023-04-23T12:52:17.833Z,15.60
2023-04-23T12:54:45.132Z,15.52
2023-04-23T12:57:13.609Z,15.51
2023-04-23T12:59:41.411Z,15.48
2023-04-23T13:02:10.102Z,15.42
2023-04-23T13:04:37.565Z,15.49
2023-04-23T13:07:05.298Z,15.50
2023-04-23T13:09:32.794Z,15.44
2023-04-23T13:12:00.965Z,15.41
2023-04-23T13:14:28.864Z,15.42
2023-04-23T13:16:56.161Z,15.33
2023-04-23T13:19:23.499Z,15.27
2023-04-23T13:21:50.790Z,15.27
2023-04-23T13:24:18.040Z,15.26
2023-04-23T13:26:45.347Z,15.23
2023-04-23T13:29:12.748Z,15.21
2023-04-23T13:31:40.090Z,15.21
2023-04-23T13:34:07.515Z,15.29
2023-04-23T13:36:34.807Z,15.32
2023-04-23T13:39:02.294Z,15.44
2023-04-23T13:41:29.701Z,15.44
2023-04-23T13:43:56.993Z,15.58
2023-04-23T13:46:24.406Z,15.61
2023-04-23T13:48:54.029Z,15.64
2023-04-23T13:51:52.216Z,15.54
2023-04-23T13:54:28.957Z,15.47
2023-04-23T13:56:57.388Z,15.47
2023-04-23T13:59:25.983Z,15.32
2023-04-23T14:01:53.375Z,15.36
2023-04-23T14:04:22.063Z,15.36
2023-04-23T14:06:49.445Z,15.27
2023-04-23T14:09:17.148Z,15.28
2023-04-23T14:11:44.959Z,15.26
2023-04-23T14:14:13.082Z,15.08
2023-04-23T14:16:49.733Z,15.10
2023-04-23T14:19:24.770Z,15.05
2023-04-23T14:21:52.265Z,15.00
2023-04-23T14:24:34.663Z,15.06
2023-04-23T14:29:56.548Z,15.10
2023-04-23T14:32:24.024Z,15.09
2023-04-23T14:34:51.770Z,14.97
2023-04-23T14:37:22.579Z,14.91
2023-04-23T14:39:49.942Z,14.91
2023-04-23T14:42:17.743Z,14.81
2023-04-23T14:44:45.006Z,14.80
2023-04-23T14:47:12.398Z,14.76
2023-04-23T14:49:40.880Z,14.74
2023-04-23T14:52:18.304Z,14.58
2023-04-23T14:54:46.667Z,14.57
2023-04-23T15:00:08.628Z,14.44
2023-04-23T15:02:40.612Z,14.39
2023-04-23T15:05:09.525Z,14.28
2023-04-23T15:07:38.909Z,14.16
2023-04-23T15:10:08.168Z,14.12
2023-04-23T15:12:38.009Z,13.99
2023-04-23T15:15:07.134Z,13.98
2023-04-23T15:17:34.452Z,13.98
2023-04-23T15:20:01.874Z,13.92
2023-04-23T15:22:29.322Z,13.95
2023-04-23T15:24:56.580Z,13.89
2023-04-23T15:27:24.470Z,13.90
2023-04-23T15:29:51.924Z,13.91
2023-04-23T15:32:19.353Z,13.89
2023-04-23T15:34:46.634Z,13.89
2023-04-23T15:37:14.188Z,13.77
2023-04-23T15:39:41.867Z,13.83
2023-04-23T15:42:09.262Z,13.80
2023-04-23T15:44:36.535Z,13.78
2023-04-23T15:47:06.800Z,13.77
2023-04-23T15:49:34.247Z,13.81
2023-04-23T15:52:01.715Z,13.83
2023-04-23T15:54:29.101Z,13.87
2023-04-23T15:56:56.463Z,13.89
2023-04-23T15:59:23.742Z,13.82
2023-04-23T16:01:51.479Z,13.76
2023-04-23T16:04:19.286Z,13.84
2023-04-23T16:06:46.921Z,13.74
2023-04-23T16:09:14.366Z,13.77
2023-04-23T16:11:41.718Z,13.77
2023-04-23T16:14:08.934Z,13.75
2023-04-23T16:16:36.185Z,13.77
2023-04-23T16:19:03.822Z,13.70
2023-04-23T16:21:31.631Z,13.72
2023-04-23T16:23:58.876Z,13.72
2023-04-23T16:26:28.276Z,13.71
2023-04-23T16:29:16.876Z,13.64
2023-04-23T16:31:43.351Z,13.65
2023-04-23T16:34:10.614Z,13.49
2023-04-23T16:36:38.195Z,13.54
2023-04-23T16:39:05.540Z,13.47
2023-04-23T16:41:32.907Z,13.48
2023-04-23T16:44:00.325Z,13.49
2023-04-23T16:46:27.704Z,13.48
2023-04-23T16:48:54.949Z,13.46
2023-04-23T16:51:22.339Z,13.43
2023-04-23T16:53:49.683Z,13.38
2023-04-23T16:56:17.092Z,13.38
2023-04-23T16:58:44.758Z,13.35
2023-04-23T17:01:12.083Z,13.28
2023-04-23T17:03:39.553Z,13.30
2023-04-23T17:06:26.516Z,13.28
2023-04-23T17:08:55.561Z,13.25
2023-04-23T17:11:23.083Z,13.17
2023-04-23T17:13:52.505Z,13.10
2023-04-23T17:16:19.905Z,13.10
2023-04-23T17:18:47.384Z,13.03
2023-04-23T17:21:14.839Z,12.99
2023-04-23T17:23:42.079Z,13.02
2023-04-23T17:26:09.468Z,13.00
2023-04-23T17:28:36.909Z,13.01
2023-04-23T17:31:04.196Z,13.01
2023-04-23T17:33:31.736Z,13.01
2023-04-23T17:35:59.435Z,13.00
2023-04-23T17:38:27.066Z,13.01
2023-04-23T17:40:55.000Z,12.92
2023-04-23T17:43:22.341Z,12.94
2023-04-23T17:45:49.866Z,12.95
2023-04-23T17:48:17.169Z,12.94
2023-04-23T17:50:44.759Z,12.95
2023-04-23T17:53:12.350Z,12.96
2023-04-23T17:55:40.029Z,12.93
2023-04-23T17:58:07.388Z,12.96
2023-04-23T18:00:40.342Z,12.94
2023-04-23T18:03:08.848Z,12.87
2023-04-23T18:05:37.334Z,12.83
2023-04-23T18:08:04.589Z,12.84
2023-04-23T18:10:32.290Z,12.82
2023-04-23T18:13:02.362Z,12.81
2023-04-23T18:15:30.436Z,12.79
2023-04-23T18:17:58.569Z,12.75
2023-04-23T18:20:26.481Z,12.72
2023-04-23T18:22:54.128Z,12.72
2023-04-23T18:25:22.327Z,12.70
2023-04-23T18:27:49.622Z,12.67
2023-04-23T18:30:17.206Z,12.66
2023-04-23T18:32:49.871Z,12.63
2023-04-23T18:35:17.817Z,12.60
2023-04-23T18:37:55.179Z,12.57
2023-04-23T18:40:22.635Z,12.55
2023-04-23T18:42:50.328Z,12.55
2023-04-23T18:45:17.738Z,12.51
2023-04-23T18:47:51.238Z,12.53
2023-04-23T18:50:49.377Z,12.49
2023-04-23T18:53:21.644Z,12.50
2023-04-23T18:55:49.890Z,12.49
2023-04-23T18:58:17.306Z,12.52
2023-04-23T19:00:44.571Z,12.50
2023-04-23T19:03:23.325Z,12.52
2023-04-23T19:05:54.396Z,12.51
2023-04-23T19:08:22.062Z,12.51
2023-04-23T19:10:49.553Z,12.46
2023-04-23T19:13:16.836Z,12.44
2023-04-23T19:15:44.517Z,12.43
2023-04-23T19:18:11.952Z,12.47
2023-04-23T19:20:39.467Z,12.46
2023-04-23T19:23:06.807Z,12.42
2023-04-23T19:25:34.199Z,12.46
2023-04-23T19:28:02.085Z,12.49
2023-04-23T19:30:29.480Z,12.48
2023-04-23T19:32:56.699Z,12.46
2023-04-23T19:35:24.101Z,12.46
2023-04-23T19:37:51.408Z,12.42
2023-04-23T19:40:19.098Z,12.43
2023-04-23T19:42:46.536Z,12.44
2023-04-23T19:45:13.792Z,12.44
2023-04-23T19:47:41.044Z,12.43
2023-04-23T19:50:09.483Z,12.38
2023-04-23T19:52:37.159Z,12.37
2023-04-23T19:55:05.121Z,12.38
2023-04-23T19:57:32.417Z,12.36
2023-04-23T19:59:59.695Z,12.39
2023-04-23T20:02:27.057Z,12.40
2023-04-23T20:04:54.266Z,12.38
2023-04-23T20:07:21.863Z,12.38
2023-04-23T20:09:49.365Z,12.42
2023-04-23T20:12:16.718Z,12.41
2023-04-23T20:14:43.992Z,12.37
2023-04-23T20:17:12.016Z,12.32
2023-04-23T20:19:39.761Z,12.35
2023-04-23T20:22:07.042Z,12.36
2023-04-23T20:24:34.447Z,12.34
2023-04-23T20:27:01.879Z,12.32
2023-04-23T20:29:29.199Z,12.32
2023-04-23T20:31:56.447Z,12.34
2023-04-23T20:34:23.690Z,12.31
2023-04-23T20:36:51.038Z,12.26
2023-04-23T20:39:18.468Z,12.25
2023-04-23T20:41:45.736Z,12.29
2023-04-23T20:44:13.240Z,12.29
2023-04-23T20:46:41.240Z,12.30
2023-04-23T20:49:08.493Z,12.26
2023-04-23T20:51:35.714Z,12.23
2023-04-23T20:54:03.112Z,12.24
2023-04-23T20:56:31.224Z,12.18
2023-04-23T20:58:58.729Z,12.22
2023-04-23T21:01:26.899Z,12.26
2023-04-23T21:03:54.751Z,12.24
2023-04-23T21:06:22.701Z,12.25
2023-04-23T21:08:50.075Z,12.25
2023-04-23T21:11:19.958Z,12.24
2023-04-23T21:13:47.417Z,12.24
2023-04-23T21:16:15.023Z,12.24
2023-04-23T21:18:42.787Z,12.25
2023-04-23T21:21:10.059Z,12.26
2023-04-23T21:23:37.345Z,12.23
2023-04-23T21:26:05.038Z,12.20
2023-04-23T21:28:32.638Z,12.18
2023-04-23T21:31:14.049Z,12.19
2023-04-23T21:33:43.515Z,12.21
2023-04-23T21:36:10.796Z,12.19
2023-04-23T21:38:38.245Z,12.20
2023-04-23T21:41:05.645Z,12.20
2023-04-23T21:43:33.115Z,12.18
2023-04-23T21:46:00.429Z,12.21
2023-04-23T21:48:27.874Z,12.18
2023-04-23T21:50:55.333Z,12.17
2023-04-23T21:53:22.740Z,12.20
2023-04-23T21:55:50.007Z,12.16
2023-04-23T21:58:18.179Z,12.16
2023-04-23T22:00:46.467Z,12.16
2023-04-23T22:03:19.244Z,12.17
2023-04-23T22:05:55.257Z,12.17
2023-04-23T22:08:22.559Z,12.17
2023-04-23T22:10:49.779Z,12.17
2023-04-23T22:13:17.043Z,12.16
2023-04-23T22:15:44.535Z,12.14
2023-04-23T22:18:11.752Z,12.14
2023-04-23T22:20:39.074Z,12.13
2023-04-23T22:23:06.455Z,12.14
2023-04-23T22:25:33.914Z,12.10
2023-04-23T22:28:01.298Z,12.06
2023-04-23T22:30:28.724Z,12.00
2023-04-23T22:32:56.114Z,11.99
2023-04-23T22:35:23.439Z,11.98
2023-04-23T22:37:50.906Z,11.94
2023-04-23T22:40:18.354Z,11.93
2023-04-23T22:42:45.621Z,12.00
2023-04-23T22:45:12.966Z,11.98
2023-04-23T22:47:40.269Z,11.99
2023-04-23T22:50:08.180Z,11.99
2023-04-23T22:52:35.777Z,11.99
2023-04-23T22:55:03.195Z,11.99
2023-04-23T22:57:30.911Z,12.03
2023-04-23T22:59:58.774Z,12.01
2023-04-23T23:02:26.154Z,12.01
2023-04-23T23:04:53.675Z,12.05
2023-04-23T23:07:21.141Z,12.03
2023-04-23T23:09:48.435Z,12.02
2023-04-23T23:12:15.650Z,11.97
2023-04-23T23:14:42.982Z,11.97
2023-04-23T23:17:10.601Z,11.98
2023-04-23T23:19:37.916Z,11.96
2023-04-23T23:22:05.338Z,11.97
2023-04-23T23:24:32.858Z,11.99
2023-04-23T23:27:00.227Z,11.99
2023-04-23T23:29:27.613Z,11.95
2023-04-23T23:31:57.895Z,11.96
2023-04-23T23:34:25.173Z,11.96
2023-04-23T23:36:52.463Z,11.96
2023-04-23T23:39:19.772Z,11.96
2023-04-23T23:41:47.311Z,11.93
2023-04-23T23:44:14.741Z,11.91
2023-04-23T23:46:42.532Z,11.92
2023-04-23T23:49:09.936Z,11.92
2023-04-23T23:51:37.221Z,11.90
2023-04-23T23:54:04.567Z,11.89
2023-04-23T23:56:31.959Z,11.87
2023-04-23T23:58:59.189Z,11.85
